createdAt,value
2022-12-04T00:04:53.590Z,3.23
2022-12-04T00:09:57.744Z,3.05
2022-12-04T00:20:27.433Z,2.45
2022-12-04T00:25:34.204Z,2.75
2022-12-04T00:30:44.138Z,3.44
2022-12-04T00:35:48.449Z,2.84
2022-12-04T00:40:53.356Z,2.54
2022-12-04T00:45:59.282Z,3.03
2022-12-04T00:51:06.725Z,2.83
2022-12-04T00:56:13.080Z,2.07
2022-12-04T01:01:20.817Z,1.47
2022-12-04T01:06:26.751Z,2.00
2022-12-04T01:11:30.748Z,1.73
2022-12-04T01:16:38.265Z,1.92
2022-12-04T01:21:42.378Z,2.36
2022-12-04T01:26:46.276Z,1.96
2022-12-04T01:31:51.593Z,1.95
2022-12-04T01:36:55.457Z,1.95
2022-12-04T01:41:59.233Z,1.62
2022-12-04T01:47:04.518Z,2.05
2022-12-04T01:52:12.984Z,2.77
2022-12-04T01:57:19.122Z,2.26
2022-12-04T02:02:28.711Z,2.37
2022-12-04T02:07:33.685Z,2.44
2022-12-04T02:12:46.396Z,2.34
2022-12-04T02:17:59.751Z,2.20
2022-12-04T02:23:29.812Z,2.86
2022-12-04T02:28:42.955Z,2.77
2022-12-04T02:33:54.684Z,2.76
2022-12-04T02:39:04.077Z,2.19
2022-12-04T02:44:15.477Z,2.15
2022-12-04T02:49:24.931Z,2.40
2022-12-04T02:54:40.591Z,2.91
2022-12-04T02:59:48.504Z,2.43
2022-12-04T03:04:57.031Z,2.75
2022-12-04T03:10:04.403Z,2.68
2022-12-04T03:15:13.860Z,2.54
2022-12-04T03:20:18.562Z,2.22
2022-12-04T03:28:31.821Z,2.09
2022-12-04T03:33:39.756Z,2.14
2022-12-04T03:38:48.703Z,2.05
2022-12-04T03:44:00.216Z,2.06
2022-12-04T03:49:13.954Z,2.42
2022-12-04T03:54:21.656Z,2.32
2022-12-04T03:59:30.479Z,2.32
2022-12-04T04:04:40.038Z,2.23
2022-12-04T04:09:49.752Z,2.29
2022-12-04T04:15:17.507Z,2.80
2022-12-04T04:20:44.000Z,2.53
2022-12-04T04:25:49.233Z,2.42
2022-12-04T04:30:57.923Z,2.67
2022-12-04T04:36:08.952Z,2.06
2022-12-04T04:41:17.810Z,2.00
2022-12-04T04:46:30.622Z,1.68
2022-12-04T04:51:36.248Z,1.98
2022-12-04T04:56:44.277Z,2.26
2022-12-04T05:01:49.831Z,2.24
2022-12-04T05:06:53.664Z,2.35
2022-12-04T05:11:57.447Z,2.52
2022-12-04T05:17:04.572Z,1.85
2022-12-04T05:22:13.106Z,2.13
2022-12-04T05:27:17.062Z,2.31
2022-12-04T05:32:22.814Z,1.82
2022-12-04T05:37:27.402Z,2.33
2022-12-04T05:42:31.387Z,2.26
2022-12-04T05:47:40.337Z,1.97
2022-12-04T05:52:44.125Z,2.68
2022-12-04T05:57:47.922Z,2.91
2022-12-04T06:02:53.215Z,2.68
2022-12-04T06:07:57.172Z,2.54
2022-12-04T06:13:01.111Z,2.84
2022-12-04T06:18:06.904Z,3.23
2022-12-04T06:23:10.741Z,3.42
2022-12-04T06:28:14.612Z,1.91
2022-12-04T06:33:19.898Z,2.09
2022-12-04T06:38:23.983Z,2.31
2022-12-04T06:43:27.836Z,2.48
2022-12-04T06:48:33.605Z,2.24
2022-12-04T06:53:37.214Z,1.98
2022-12-04T06:58:44.266Z,2.29
2022-12-04T07:03:51.805Z,2.19
2022-12-04T07:08:59.332Z,2.65
2022-12-04T07:14:03.598Z,2.62
2022-12-04T07:19:09.205Z,2.20
2022-12-04T07:24:16.379Z,2.38
2022-12-04T07:29:20.381Z,3.35
2022-12-04T07:34:25.712Z,2.49
2022-12-04T07:39:29.626Z,3.00
2022-12-04T07:44:33.487Z,2.76
2022-12-04T07:49:38.653Z,2.66
2022-12-04T07:54:42.651Z,3.31
2022-12-04T07:59:46.416Z,2.62
2022-12-04T08:04:51.613Z,3.00
2022-12-04T08:09:55.810Z,3.31
2022-12-04T08:14:59.945Z,3.33
2022-12-04T08:20:06.209Z,2.97
2022-12-04T08:25:10.474Z,2.98
2022-12-04T08:30:14.901Z,2.62
2022-12-04T08:35:20.088Z,3.14
2022-12-04T08:40:24.344Z,3.53
2022-12-04T08:45:28.109Z,3.96
2022-12-04T08:50:33.284Z,3.54
2022-12-04T08:55:37.171Z,3.89
2022-12-04T09:00:40.964Z,3.11
2022-12-04T09:05:47.108Z,3.65
2022-12-04T09:10:50.818Z,2.87
2022-12-04T09:15:54.804Z,3.97
2022-12-04T09:21:02.664Z,3.86
2022-12-04T09:26:08.252Z,3.38
2022-12-04T09:31:12.049Z,3.56
2022-12-04T09:36:17.283Z,3.56
2022-12-04T09:41:33.198Z,3.23
2022-12-04T09:46:41.116Z,3.89
2022-12-04T09:51:48.147Z,2.80
2022-12-04T09:56:56.508Z,2.54
2022-12-04T10:02:04.331Z,3.11
2022-12-04T10:07:16.467Z,2.48
2022-12-04T10:12:30.720Z,3.02
2022-12-04T10:17:48.668Z,3.07
2022-12-04T10:23:09.304Z,2.78
2022-12-04T10:28:26.361Z,3.14
2022-12-04T10:33:38.364Z,2.19
2022-12-04T10:38:46.985Z,1.97
2022-12-04T10:43:51.988Z,2.16
2022-12-04T10:49:00.849Z,1.82
2022-12-04T10:54:19.637Z,2.19
2022-12-04T10:59:23.910Z,1.86
2022-12-04T11:04:29.201Z,2.67
2022-12-04T11:09:35.114Z,2.65
2022-12-04T11:14:42.761Z,2.88
2022-12-04T11:19:59.737Z,3.13
2022-12-04T11:25:05.135Z,3.54
2022-12-04T11:30:14.409Z,2.44
2022-12-04T11:35:23.300Z,2.93
2022-12-04T11:40:29.232Z,3.21
2022-12-04T11:45:34.076Z,2.84
2022-12-04T11:50:47.132Z,3.52
2022-12-04T11:56:14.367Z,3.41
2022-12-04T12:01:35.810Z,3.12
2022-12-04T12:06:50.173Z,3.72
2022-12-04T12:12:01.715Z,3.17
2022-12-04T12:17:17.230Z,3.26
2022-12-04T12:22:35.155Z,3.15
2022-12-04T12:27:58.275Z,2.95
2022-12-04T12:33:11.142Z,3.24
2022-12-04T12:38:19.649Z,2.68
2022-12-04T12:43:31.456Z,2.92
2022-12-04T12:48:42.633Z,3.38
2022-12-04T12:53:51.352Z,3.62
2022-12-04T12:58:59.755Z,3.17
2022-12-04T13:04:10.866Z,2.92
2022-12-04T13:09:25.565Z,3.07
2022-12-04T13:14:30.958Z,3.30
2022-12-04T13:19:43.373Z,3.13
2022-12-04T13:25:25.540Z,2.64
2022-12-04T13:30:43.582Z,3.13
2022-12-04T13:36:05.459Z,3.01
2022-12-04T13:41:12.360Z,3.04
2022-12-04T13:46:32.039Z,2.42
2022-12-04T13:51:38.225Z,2.84
2022-12-04T13:56:44.044Z,3.46
2022-12-04T14:01:50.527Z,2.51
2022-12-04T14:06:56.249Z,3.10
2022-12-04T14:12:03.064Z,2.81
2022-12-04T14:17:20.321Z,2.71
2022-12-04T14:22:29.810Z,2.41
2022-12-04T14:27:43.738Z,2.36
2022-12-04T14:32:50.719Z,2.62
2022-12-04T14:37:58.248Z,2.55
2022-12-04T14:43:02.152Z,2.77
2022-12-04T14:48:25.327Z,1.66
2022-12-04T14:53:40.246Z,2.23
2022-12-04T14:58:44.912Z,1.46
2022-12-04T15:04:08.540Z,1.90
2022-12-04T15:09:36.964Z,1.64
2022-12-04T15:14:42.653Z,2.40
2022-12-04T15:19:47.928Z,2.51
2022-12-04T15:24:52.354Z,1.92
2022-12-04T15:29:59.893Z,2.40
2022-12-04T15:35:09.675Z,2.18
2022-12-04T15:40:21.403Z,2.67
2022-12-04T15:45:34.419Z,2.99
2022-12-04T15:50:39.707Z,2.48
2022-12-04T15:55:50.652Z,2.48
2022-12-04T16:00:57.673Z,2.24
2022-12-04T16:06:16.385Z,1.64
2022-12-04T16:11:33.381Z,1.80
2022-12-04T16:16:42.295Z,1.38
2022-12-04T16:21:48.005Z,1.62
2022-12-04T16:26:54.868Z,1.73
2022-12-04T16:32:02.963Z,2.35
2022-12-04T16:37:13.905Z,2.44
2022-12-04T16:42:24.553Z,1.76
2022-12-04T16:47:28.846Z,2.48
2022-12-04T16:52:34.168Z,2.44
2022-12-04T16:57:38.402Z,2.02
2022-12-04T17:02:42.855Z,2.13
2022-12-04T17:07:48.545Z,2.38
2022-12-04T17:12:53.767Z,1.54
2022-12-04T17:17:57.600Z,1.81
2022-12-04T17:23:02.997Z,2.19
2022-12-04T17:28:07.031Z,2.49
2022-12-04T17:33:11.317Z,2.24
2022-12-04T17:38:16.562Z,2.25
2022-12-04T17:43:22.176Z,1.92
2022-12-04T17:48:27.520Z,2.52
2022-12-04T17:53:32.825Z,1.79
2022-12-04T17:58:37.682Z,2.08
2022-12-04T18:03:43.462Z,2.54
2022-12-04T18:08:50.398Z,2.19
2022-12-04T18:13:58.327Z,1.71
2022-12-04T18:19:03.875Z,1.88
2022-12-04T18:24:09.604Z,1.91
2022-12-04T18:29:15.774Z,1.46
2022-12-04T18:34:19.667Z,2.08
2022-12-04T18:39:26.541Z,1.53
2022-12-04T18:44:30.709Z,1.78
2022-12-04T18:49:34.508Z,1.71
2022-12-04T18:54:39.840Z,1.78
2022-12-04T18:59:43.706Z,0.98
2022-12-04T19:04:47.739Z,1.15
2022-12-04T19:10:10.418Z,1.43
2022-12-04T19:15:17.165Z,1.93
2022-12-04T19:20:21.445Z,1.68
2022-12-04T19:25:26.860Z,1.47
2022-12-04T19:30:35.015Z,1.55
2022-12-04T19:35:39.114Z,1.37
2022-12-04T19:40:44.425Z,1.71
2022-12-04T19:45:49.529Z,1.28
2022-12-04T19:50:53.508Z,1.72
2022-12-04T19:56:02.673Z,2.36
2022-12-04T20:01:14.879Z,1.47
2022-12-04T20:06:21.363Z,1.65
2022-12-04T20:11:30.164Z,2.18
2022-12-04T20:16:36.013Z,1.94
2022-12-04T20:21:40.416Z,1.95
2022-12-04T20:26:47.982Z,2.00
2022-12-04T20:31:52.296Z,1.30
2022-12-04T20:36:56.482Z,1.14
2022-12-04T20:42:02.316Z,1.51
2022-12-04T20:47:06.731Z,1.58
2022-12-04T20:52:11.291Z,1.62
2022-12-04T20:57:16.695Z,1.59
2022-12-04T21:02:21.118Z,1.63
2022-12-04T21:07:25.459Z,1.64
2022-12-04T21:12:48.222Z,1.61
2022-12-04T21:17:52.015Z,2.35
2022-12-04T21:22:56.097Z,2.84
2022-12-04T21:28:01.272Z,1.58
2022-12-04T21:33:05.167Z,1.81
2022-12-04T21:38:09.154Z,2.13
2022-12-04T21:43:14.329Z,1.57
2022-12-04T21:48:18.091Z,1.44
2022-12-04T21:53:22.426Z,1.81
2022-12-04T21:58:29.080Z,1.26
2022-12-04T22:03:33.011Z,1.77
2022-12-04T22:08:37.688Z,1.18
2022-12-04T22:13:46.132Z,1.41
2022-12-04T22:18:50.198Z,1.58
2022-12-04T22:23:56.555Z,1.61
2022-12-04T22:29:03.246Z,1.56
2022-12-04T22:34:15.254Z,1.53
2022-12-04T22:39:19.034Z,1.33
2022-12-04T22:44:24.330Z,1.65
2022-12-04T22:49:28.121Z,2.10
2022-12-04T22:54:31.946Z,1.62
2022-12-04T22:59:37.268Z,1.64
2022-12-04T23:04:41.191Z,2.07
2022-12-04T23:09:45.256Z,1.67
2022-12-04T23:14:50.665Z,1.60
2022-12-04T23:19:54.906Z,0.88
2022-12-04T23:24:59.003Z,1.48
2022-12-04T23:30:04.588Z,1.08
2022-12-04T23:35:09.498Z,1.26
2022-12-04T23:40:13.877Z,2.14
2022-12-04T23:45:19.264Z,1.62
2022-12-04T23:50:23.315Z,1.79
2022-12-04T23:55:32.528Z,1.43
